createdAt,value
2019-03-20T00:01:58.329Z,8.43
2019-03-20T00:08:02.619Z,9.10
2019-03-20T00:14:06.925Z,9.40
2019-03-20T00:20:11.644Z,10.20
2019-03-20T00:26:15.856Z,9.80
2019-03-20T00:32:20.083Z,10.10
2019-03-20T00:38:24.314Z,10.82
2019-03-20T00:44:28.558Z,10.32
2019-03-20T00:50:32.949Z,11.10
2019-03-20T00:56:37.270Z,11.70
2019-03-20T01:02:41.486Z,11.85
2019-03-20T01:08:45.709Z,11.33
2019-03-20T01:14:50.222Z,11.88
2019-03-20T01:20:54.439Z,11.80
2019-03-20T01:26:59.082Z,11.93
2019-03-20T01:33:04.639Z,12.68
2019-03-20T01:39:12.251Z,12.53
2019-03-20T01:45:16.698Z,12.90
2019-03-20T01:51:21.989Z,14.07
2019-03-20T01:57:26.295Z,14.43
2019-03-20T02:03:30.564Z,13.72
2019-03-20T02:09:34.905Z,13.70
2019-03-20T02:15:39.798Z,14.50
2019-03-20T02:21:44.459Z,14.75
2019-03-20T02:27:48.711Z,13.40
2019-03-20T02:33:53.014Z,12.93
2019-03-20T02:39:57.257Z,12.65
2019-03-20T02:46:01.501Z,14.00
2019-03-20T02:52:05.764Z,15.13
2019-03-20T02:58:10.080Z,14.15
2019-03-20T03:04:14.459Z,14.40
2019-03-20T03:10:18.829Z,14.58
2019-03-20T03:16:23.158Z,14.53
2019-03-20T03:22:27.439Z,15.00
2019-03-20T03:28:31.765Z,15.08
2019-03-20T03:34:36.056Z,15.30
2019-03-20T03:40:40.450Z,14.98
2019-03-20T03:46:44.832Z,15.38
2019-03-20T03:52:49.079Z,15.63
2019-03-20T03:58:53.308Z,16.77
2019-03-20T04:04:57.613Z,17.20
2019-03-20T04:11:01.932Z,16.80
2019-03-20T04:17:21.970Z,17.25
2019-03-20T04:23:26.258Z,16.27
2019-03-20T04:29:30.659Z,16.12
2019-03-20T04:35:35.048Z,15.63
2019-03-20T04:41:39.280Z,15.70
2019-03-20T04:47:43.629Z,14.45
2019-03-20T04:53:47.868Z,12.75
2019-03-20T04:59:52.171Z,12.65
2019-03-20T05:05:56.470Z,13.93
2019-03-20T05:12:00.832Z,13.20
2019-03-20T05:18:05.126Z,13.65
2019-03-20T05:24:09.344Z,13.60
2019-03-20T05:30:14.003Z,12.78
2019-03-20T05:36:18.308Z,13.40
2019-03-20T05:42:22.588Z,11.93
2019-03-20T05:48:26.798Z,11.75
2019-03-20T05:54:31.237Z,12.53
2019-03-20T06:00:36.281Z,12.47
2019-03-20T06:06:40.665Z,13.20
2019-03-20T06:12:44.892Z,11.45
2019-03-20T06:18:49.266Z,11.65
2019-03-20T06:24:53.589Z,11.22
2019-03-20T06:30:58.005Z,11.53
2019-03-20T06:37:02.394Z,11.95
2019-03-20T06:43:06.617Z,11.22
2019-03-20T06:49:11.045Z,11.08
2019-03-20T06:55:15.330Z,11.25
2019-03-20T07:01:25.931Z,11.43
2019-03-20T07:07:44.159Z,11.48
2019-03-20T07:13:42.907Z,10.88
2019-03-20T07:19:47.217Z,12.45
2019-03-20T07:25:51.447Z,15.03
2019-03-20T07:31:55.689Z,18.37
2019-03-20T07:38:00.051Z,16.30
2019-03-20T07:44:04.540Z,17.15
2019-03-20T07:50:09.051Z,18.73
2019-03-20T07:56:13.386Z,14.50
2019-03-20T08:02:17.673Z,13.18
2019-03-20T08:08:21.911Z,14.23
2019-03-20T08:14:26.134Z,10.40
2019-03-20T08:20:30.441Z,10.00
2019-03-20T08:26:34.731Z,10.18
2019-03-20T08:32:39.134Z,10.58
2019-03-20T08:38:43.404Z,8.88
2019-03-20T08:44:47.747Z,8.65
2019-03-20T08:50:52.295Z,9.43
2019-03-20T08:56:56.531Z,6.12
2019-03-20T09:03:00.789Z,8.50
2019-03-20T09:09:07.939Z,8.58
2019-03-20T09:15:13.231Z,9.05
2019-03-20T09:21:17.569Z,7.22
2019-03-20T09:27:21.895Z,5.97
2019-03-20T09:33:26.120Z,7.42
2019-03-20T09:39:30.360Z,6.22
2019-03-20T09:45:34.655Z,6.03
2019-03-20T09:51:38.972Z,9.08
2019-03-20T09:57:43.649Z,9.15
2019-03-20T10:03:47.949Z,9.13
2019-03-20T10:09:52.227Z,10.53
2019-03-20T10:15:56.633Z,7.12
2019-03-20T10:22:00.868Z,7.97
2019-03-20T10:28:05.215Z,7.80
2019-03-20T10:34:09.494Z,8.28
2019-03-20T10:40:15.772Z,8.50
2019-03-20T10:46:20.091Z,8.53
2019-03-20T10:52:24.601Z,5.28
2019-03-20T10:58:28.983Z,6.97
2019-03-20T11:04:33.210Z,8.70
2019-03-20T11:10:37.876Z,10.65
2019-03-20T11:16:42.729Z,6.87
2019-03-20T11:22:47.182Z,10.70
2019-03-20T11:28:51.498Z,10.40
2019-03-20T11:34:55.732Z,7.08
2019-03-20T11:40:59.952Z,7.78
2019-03-20T11:47:04.334Z,10.43
2019-03-20T11:53:08.587Z,8.55
2019-03-20T11:59:13.096Z,10.35
2019-03-20T12:05:17.314Z,11.30
2019-03-20T12:11:21.891Z,9.10
2019-03-20T12:17:26.352Z,12.28
2019-03-20T12:23:30.547Z,11.05
2019-03-20T12:29:37.901Z,7.87
2019-03-20T12:35:42.216Z,10.70
2019-03-20T12:41:46.438Z,8.53
2019-03-20T12:47:50.644Z,5.40
2019-03-20T12:53:54.984Z,5.45
2019-03-20T12:59:59.231Z,9.20
2019-03-20T13:06:03.468Z,6.05
2019-03-20T13:12:07.669Z,9.05
2019-03-20T13:18:12.068Z,8.58
2019-03-20T13:24:16.352Z,5.35
2019-03-20T13:30:23.258Z,8.15
2019-03-20T13:36:27.565Z,8.25
2019-03-20T13:42:31.904Z,7.12
2019-03-20T13:48:36.201Z,7.30
2019-03-20T13:54:40.548Z,6.20
2019-03-20T14:00:45.031Z,3.70
2019-03-20T14:06:49.329Z,5.28
2019-03-20T14:12:53.652Z,7.00
2019-03-20T14:18:57.860Z,5.08
2019-03-20T14:25:02.062Z,5.75
2019-03-20T14:31:09.269Z,7.12
2019-03-20T14:37:13.461Z,5.35
2019-03-20T14:43:17.841Z,5.15
2019-03-20T14:49:22.190Z,5.50
2019-03-20T14:55:26.666Z,4.50
2019-03-20T15:01:30.873Z,4.75
2019-03-20T15:07:35.170Z,5.00
2019-03-20T15:13:39.478Z,4.17
2019-03-20T15:19:43.701Z,4.70
2019-03-20T15:25:48.076Z,5.25
2019-03-20T15:31:52.278Z,6.22
2019-03-20T15:37:56.634Z,5.53
2019-03-20T15:44:02.631Z,4.60
2019-03-20T15:50:08.424Z,4.35
2019-03-20T15:56:12.698Z,5.12
2019-03-20T16:02:17.066Z,5.35
2019-03-20T16:08:21.561Z,3.85
2019-03-20T16:14:25.814Z,5.87
2019-03-20T16:20:30.292Z,5.75
2019-03-20T16:26:34.528Z,5.40
2019-03-20T16:32:38.897Z,4.45
2019-03-20T16:38:43.164Z,6.10
2019-03-20T16:44:47.404Z,7.50
2019-03-20T16:50:51.789Z,7.25
2019-03-20T16:56:56.112Z,7.85
2019-03-20T17:03:00.695Z,7.58
2019-03-20T17:09:07.961Z,7.78
2019-03-20T17:15:15.535Z,7.25
2019-03-20T17:21:19.937Z,9.80
2019-03-20T17:27:24.229Z,10.95
2019-03-20T17:33:28.801Z,11.25
2019-03-20T17:39:33.453Z,10.05
2019-03-20T17:45:37.839Z,12.30
2019-03-20T17:51:42.074Z,11.33
2019-03-20T17:57:46.595Z,9.80
2019-03-20T18:03:51.622Z,5.60
2019-03-20T18:09:55.979Z,6.17
2019-03-20T18:16:00.308Z,7.87
2019-03-20T18:22:05.272Z,10.25
2019-03-20T18:28:09.692Z,9.28
2019-03-20T18:34:14.185Z,9.20
2019-03-20T18:40:19.339Z,9.95
2019-03-20T18:46:24.662Z,17.02
2019-03-20T18:52:29.443Z,14.85
2019-03-20T18:58:33.750Z,11.33
2019-03-20T19:04:38.038Z,11.30
2019-03-20T19:10:42.742Z,11.08
2019-03-20T19:16:47.111Z,11.28
2019-03-20T19:22:51.442Z,9.30
2019-03-20T19:28:55.707Z,11.93
2019-03-20T19:35:00.022Z,12.95
2019-03-20T19:41:04.347Z,9.60
2019-03-20T19:47:08.605Z,11.40
2019-03-20T19:53:13.053Z,14.10
2019-03-20T19:59:17.303Z,15.13
2019-03-20T20:05:21.710Z,10.78
2019-03-20T20:11:26.131Z,10.28
2019-03-20T20:17:30.611Z,10.08
2019-03-20T20:23:35.043Z,9.25
2019-03-20T20:29:39.291Z,10.05
2019-03-20T20:35:43.661Z,12.75
2019-03-20T20:41:48.263Z,16.52
2019-03-20T20:47:52.619Z,12.75
2019-03-20T20:53:56.997Z,16.30
2019-03-20T21:00:01.245Z,15.70
2019-03-20T21:06:05.670Z,20.17
2019-03-20T21:12:10.131Z,15.90
2019-03-20T21:19:07.476Z,11.95
2019-03-20T21:25:12.575Z,13.85
2019-03-20T21:32:12.728Z,21.75
2019-03-20T21:38:15.511Z,14.35
2019-03-20T21:44:57.600Z,13.88
2019-03-20T21:51:12.216Z,16.85
2019-03-20T21:57:26.379Z,14.65
2019-03-20T22:03:31.630Z,15.43
2019-03-20T22:10:14.074Z,16.15
2019-03-20T22:16:45.463Z,14.10
2019-03-20T22:23:45.600Z,13.45
2019-03-20T22:29:50.442Z,14.60
2019-03-20T22:36:05.645Z,13.38
2019-03-20T22:42:51.497Z,13.15
2019-03-20T22:49:37.364Z,12.93
2019-03-20T22:56:25.880Z,13.00
2019-03-20T23:02:45.784Z,11.93
2019-03-20T23:08:50.633Z,10.95
2019-03-20T23:14:55.437Z,11.03
2019-03-20T23:21:00.281Z,9.50
2019-03-20T23:27:07.631Z,10.65
2019-03-20T23:33:12.562Z,23.20
2019-03-20T23:39:17.555Z,15.13
2019-03-20T23:45:22.440Z,11.10
2019-03-20T23:51:27.465Z,11.88
2019-03-20T23:57:32.561Z,11.40
